createdAt,value
2017-10-08T00:02:16.008Z,1.95
2017-10-08T00:04:44.903Z,2.05
2017-10-08T00:07:12.982Z,1.52
2017-10-08T00:09:42.210Z,1.62
2017-10-08T00:12:10.307Z,2.55
2017-10-08T00:14:39.742Z,1.80
2017-10-08T00:17:07.800Z,2.25
2017-10-08T00:19:35.893Z,1.62
2017-10-08T00:22:04.758Z,1.95
2017-10-08T00:24:32.849Z,1.70
2017-10-08T00:27:01.709Z,2.03
2017-10-08T00:29:29.824Z,1.70
2017-10-08T00:31:59.253Z,1.67
2017-10-08T00:34:27.278Z,1.90
2017-10-08T00:36:56.510Z,1.75
2017-10-08T00:39:24.586Z,1.85
2017-10-08T00:41:52.717Z,1.92
2017-10-08T00:44:20.806Z,1.87
2017-10-08T00:46:48.896Z,1.73
2017-10-08T00:49:17.765Z,2.05
2017-10-08T00:51:46.615Z,1.50
2017-10-08T00:54:15.462Z,2.00
2017-10-08T00:56:43.570Z,1.40
2017-10-08T00:59:11.666Z,1.75
2017-10-08T01:01:39.770Z,1.80
2017-10-08T01:04:07.916Z,2.10
2017-10-08T01:06:36.005Z,1.58
2017-10-08T01:09:04.875Z,2.25
2017-10-08T01:11:33.727Z,1.73
2017-10-08T01:14:03.231Z,2.37
2017-10-08T01:16:31.217Z,2.03
2017-10-08T01:18:59.310Z,1.60
2017-10-08T01:21:27.407Z,2.00
2017-10-08T01:23:56.833Z,1.48
2017-10-08T01:26:25.100Z,1.48
2017-10-08T01:28:53.751Z,2.20
2017-10-08T01:31:21.843Z,1.10
2017-10-08T01:33:50.409Z,1.50
2017-10-08T01:36:18.491Z,1.42
2017-10-08T01:38:46.579Z,1.67
2017-10-08T01:41:15.454Z,1.25
2017-10-08T01:43:43.535Z,1.85
2017-10-08T01:46:13.124Z,1.40
2017-10-08T01:48:41.234Z,1.50
2017-10-08T01:51:10.235Z,1.40
2017-10-08T01:53:39.785Z,1.35
2017-10-08T01:56:07.872Z,1.52
2017-10-08T01:58:35.991Z,1.60
2017-10-08T02:01:04.078Z,1.80
2017-10-08T02:03:32.938Z,1.55
2017-10-08T02:06:02.180Z,1.70
2017-10-08T02:08:30.270Z,1.30
2017-10-08T02:10:58.392Z,1.20
2017-10-08T02:13:27.236Z,1.37
2017-10-08T02:15:55.337Z,1.00
2017-10-08T02:18:23.906Z,1.20
2017-10-08T02:20:51.996Z,1.10
2017-10-08T02:23:20.484Z,0.90
2017-10-08T02:25:48.580Z,0.90
2017-10-08T02:28:18.219Z,1.00
2017-10-08T02:30:47.479Z,1.00
2017-10-08T02:33:15.957Z,0.90
2017-10-08T02:35:44.038Z,0.93
2017-10-08T02:38:13.604Z,1.00
2017-10-08T02:40:41.586Z,0.70
2017-10-08T02:43:09.684Z,0.88
2017-10-08T02:45:37.795Z,0.70
2017-10-08T02:48:05.867Z,0.90
2017-10-08T02:50:34.725Z,0.90
2017-10-08T02:53:02.833Z,0.70
2017-10-08T02:55:30.919Z,1.10
2017-10-08T02:57:59.021Z,0.70
2017-10-08T03:00:27.492Z,0.90
2017-10-08T03:02:56.353Z,0.90
2017-10-08T03:05:24.443Z,1.00
2017-10-08T03:07:52.561Z,1.15
2017-10-08T03:10:20.637Z,1.12
2017-10-08T03:12:48.739Z,1.15
2017-10-08T03:15:16.814Z,1.02
2017-10-08T03:17:44.890Z,1.35
2017-10-08T03:20:12.974Z,1.25
2017-10-08T03:22:41.054Z,1.17
2017-10-08T03:25:09.915Z,1.20
2017-10-08T03:27:37.988Z,1.12
2017-10-08T03:30:06.106Z,1.00
2017-10-08T03:32:34.214Z,1.10
2017-10-08T03:35:02.306Z,1.15
2017-10-08T03:37:30.415Z,1.05
2017-10-08T03:39:59.840Z,1.20
2017-10-08T03:42:28.988Z,1.02
2017-10-08T03:44:58.427Z,0.93
2017-10-08T03:47:26.465Z,1.00
2017-10-08T03:49:54.531Z,0.90
2017-10-08T03:52:23.395Z,1.35
2017-10-08T03:54:51.902Z,1.20
2017-10-08T03:57:19.983Z,1.05
2017-10-08T03:59:48.073Z,1.17
2017-10-08T04:02:16.175Z,1.02
2017-10-08T04:04:45.609Z,1.92
2017-10-08T04:07:13.601Z,1.40
2017-10-08T04:09:41.710Z,1.08
2017-10-08T04:12:10.178Z,1.52
2017-10-08T04:14:39.051Z,1.37
2017-10-08T04:17:07.531Z,1.37
2017-10-08T04:19:35.639Z,1.20
2017-10-08T04:22:05.223Z,1.60
2017-10-08T04:24:33.311Z,1.25
2017-10-08T04:27:02.220Z,0.95
2017-10-08T04:29:30.299Z,1.75
2017-10-08T04:31:58.383Z,1.40
2017-10-08T04:34:26.480Z,1.10
2017-10-08T04:36:54.566Z,1.20
2017-10-08T04:39:22.671Z,1.55
2017-10-08T04:41:50.748Z,1.27
2017-10-08T04:44:18.844Z,1.50
2017-10-08T04:46:47.109Z,1.25
2017-10-08T04:49:15.210Z,1.75
2017-10-08T04:51:43.718Z,1.83
2017-10-08T04:54:11.796Z,1.50
2017-10-08T04:56:40.637Z,1.27
2017-10-08T04:59:08.745Z,1.15
2017-10-08T05:01:36.830Z,0.90
2017-10-08T05:04:06.078Z,1.37
2017-10-08T05:06:34.159Z,4.90
2017-10-08T05:09:02.242Z,1.65
2017-10-08T05:11:30.363Z,1.12
2017-10-08T05:13:59.204Z,1.10
2017-10-08T05:16:27.287Z,1.20
2017-10-08T05:18:55.400Z,1.20
2017-10-08T05:23:59.574Z,1.12
2017-10-08T05:26:27.653Z,1.10
2017-10-08T05:28:55.737Z,1.10
2017-10-08T05:31:23.837Z,1.25
2017-10-08T05:33:51.920Z,1.30
2017-10-08T05:36:20.888Z,1.15
2017-10-08T05:38:50.494Z,0.93
2017-10-08T05:41:18.603Z,0.80
2017-10-08T05:43:46.685Z,0.90
2017-10-08T05:46:14.780Z,0.90
2017-10-08T05:48:42.860Z,0.77
2017-10-08T05:51:10.953Z,0.98
2017-10-08T05:53:39.060Z,1.20
2017-10-08T05:56:07.999Z,1.00
2017-10-08T05:58:37.543Z,0.80
2017-10-08T06:01:05.960Z,0.95
2017-10-08T06:03:34.071Z,0.98
2017-10-08T06:06:02.247Z,0.80
2017-10-08T06:08:30.352Z,0.95
2017-10-08T06:10:58.852Z,0.90
2017-10-08T06:13:27.716Z,1.00
2017-10-08T06:15:55.813Z,0.90
2017-10-08T06:20:58.487Z,1.30
2017-10-08T06:23:27.334Z,1.52
2017-10-08T06:25:56.212Z,1.10
2017-10-08T06:28:25.060Z,1.60
2017-10-08T06:30:53.906Z,1.05
2017-10-08T06:33:22.065Z,1.37
2017-10-08T06:35:50.156Z,1.30
2017-10-08T06:38:19.759Z,1.45
2017-10-08T06:40:47.866Z,2.47
2017-10-08T06:43:17.294Z,1.87
2017-10-08T06:45:45.782Z,1.60
2017-10-08T06:48:14.302Z,1.10
2017-10-08T06:50:42.776Z,1.25
2017-10-08T06:53:10.821Z,1.50
2017-10-08T06:55:38.916Z,1.30
2017-10-08T06:58:07.005Z,1.48
2017-10-08T07:00:35.119Z,1.10
2017-10-08T07:03:03.209Z,1.25
2017-10-08T07:05:31.324Z,1.50
2017-10-08T07:07:59.405Z,1.60
2017-10-08T07:10:27.481Z,1.75
2017-10-08T07:12:55.594Z,1.50
2017-10-08T07:15:23.683Z,1.67
2017-10-08T07:17:51.765Z,2.00
2017-10-08T07:20:19.859Z,1.62
2017-10-08T07:22:47.942Z,1.62
2017-10-08T07:25:16.081Z,1.50
2017-10-08T07:27:44.160Z,1.15
2017-10-08T07:30:12.282Z,0.90
2017-10-08T07:32:41.144Z,1.00
2017-10-08T07:35:10.590Z,1.27
2017-10-08T07:37:38.587Z,1.30
2017-10-08T07:40:07.088Z,0.93
2017-10-08T07:42:35.178Z,1.20
2017-10-08T07:45:04.760Z,1.95
2017-10-08T07:47:32.890Z,1.70
2017-10-08T07:50:01.744Z,1.80
2017-10-08T07:52:29.827Z,2.10
2017-10-08T07:54:58.713Z,2.45
2017-10-08T07:57:26.959Z,1.58
2017-10-08T07:59:56.890Z,1.52
2017-10-08T08:02:26.313Z,1.42
2017-10-08T08:04:54.736Z,1.70
2017-10-08T08:07:24.281Z,1.60
2017-10-08T08:09:53.048Z,1.48
2017-10-08T08:12:23.574Z,1.37
2017-10-08T08:14:51.607Z,1.10
2017-10-08T08:17:19.784Z,1.27
2017-10-08T08:19:47.850Z,1.30
2017-10-08T08:22:16.862Z,1.27
2017-10-08T08:24:46.401Z,1.58
2017-10-08T08:27:15.764Z,1.90
2017-10-08T08:29:44.187Z,1.30
2017-10-08T08:32:13.602Z,1.80
2017-10-08T08:34:41.656Z,1.30
2017-10-08T08:37:09.752Z,1.15
2017-10-08T08:39:39.185Z,1.48
2017-10-08T08:42:07.593Z,1.25
2017-10-08T08:44:35.783Z,1.70
2017-10-08T08:47:04.629Z,2.00
2017-10-08T08:49:34.247Z,1.60
2017-10-08T08:52:03.140Z,1.00
2017-10-08T08:54:31.221Z,1.05
2017-10-08T08:57:00.127Z,1.45
2017-10-08T08:59:28.220Z,1.40
2017-10-08T09:01:57.778Z,1.45
2017-10-08T09:04:27.135Z,1.20
2017-10-08T09:06:55.127Z,1.20
2017-10-08T09:09:25.222Z,1.17
2017-10-08T09:11:53.322Z,1.20
2017-10-08T09:14:21.407Z,1.17
2017-10-08T09:16:49.517Z,1.10
2017-10-08T09:19:17.597Z,1.20
2017-10-08T09:21:45.686Z,1.10
2017-10-08T09:24:15.686Z,2.70
2017-10-08T09:26:43.785Z,1.55
2017-10-08T09:29:11.876Z,1.80
2017-10-08T09:31:40.011Z,1.27
2017-10-08T09:34:08.138Z,1.20
2017-10-08T09:36:36.192Z,1.27
2017-10-08T09:39:04.307Z,1.20
2017-10-08T09:41:32.383Z,1.40
2017-10-08T09:44:00.690Z,1.00
2017-10-08T09:46:30.153Z,1.05
2017-10-08T09:48:58.179Z,0.90
2017-10-08T09:51:26.252Z,1.17
2017-10-08T09:53:54.344Z,1.20
2017-10-08T09:56:22.453Z,1.25
2017-10-08T09:58:50.519Z,1.10
2017-10-08T10:01:18.609Z,1.17
2017-10-08T10:03:49.479Z,1.35
2017-10-08T10:06:19.725Z,1.02
2017-10-08T10:08:48.369Z,1.37
2017-10-08T10:11:16.882Z,1.40
2017-10-08T10:13:45.194Z,2.75
2017-10-08T10:16:13.536Z,2.33
2017-10-08T10:18:41.614Z,0.88
2017-10-08T10:21:09.722Z,1.30
2017-10-08T10:23:37.836Z,1.23
2017-10-08T10:26:05.949Z,1.62
2017-10-08T10:28:34.803Z,1.45
2017-10-08T10:31:03.656Z,2.00
2017-10-08T10:33:31.748Z,1.17
2017-10-08T10:35:59.847Z,1.90
2017-10-08T10:38:27.919Z,1.75
2017-10-08T10:40:56.020Z,1.30
2017-10-08T10:43:24.103Z,0.90
2017-10-08T10:45:53.545Z,1.73
2017-10-08T10:48:21.538Z,1.67
2017-10-08T10:50:49.646Z,2.00
2017-10-08T10:53:18.710Z,1.42
2017-10-08T10:55:46.783Z,1.30
2017-10-08T10:58:15.698Z,1.40
2017-10-08T11:00:43.795Z,1.10
2017-10-08T11:03:11.890Z,1.95
2017-10-08T11:05:39.999Z,2.80
2017-10-08T11:08:09.587Z,2.40
2017-10-08T11:10:37.671Z,1.90
2017-10-08T11:13:07.143Z,1.17
2017-10-08T11:15:36.652Z,1.00
2017-10-08T11:18:04.759Z,1.87
2017-10-08T11:20:33.606Z,1.45
2017-10-08T11:23:02.455Z,1.62
2017-10-08T11:25:30.666Z,1.75
2017-10-08T11:27:58.756Z,2.15
2017-10-08T11:30:26.856Z,1.30
2017-10-08T11:32:54.933Z,1.08
2017-10-08T11:35:23.027Z,1.12
2017-10-08T11:37:51.111Z,1.83
2017-10-08T11:40:19.224Z,4.93
2017-10-08T11:42:47.718Z,4.87
2017-10-08T11:45:15.826Z,5.40
2017-10-08T11:47:45.404Z,3.87
2017-10-08T11:50:13.497Z,1.45
2017-10-08T11:52:42.020Z,1.33
2017-10-08T11:55:10.132Z,1.67
2017-10-08T11:57:38.218Z,1.40
2017-10-08T12:00:06.321Z,1.40
2017-10-08T12:02:35.214Z,1.30
2017-10-08T12:05:04.053Z,1.60
2017-10-08T12:07:32.904Z,1.20
2017-10-08T12:10:01.023Z,1.00
2017-10-08T12:12:30.620Z,0.90
2017-10-08T12:14:59.101Z,0.98
2017-10-08T12:17:28.555Z,3.80
2017-10-08T12:19:57.352Z,4.20
2017-10-08T12:22:25.430Z,1.12
2017-10-08T12:24:53.519Z,1.17
2017-10-08T12:27:21.640Z,1.50
2017-10-08T12:29:49.743Z,1.20
2017-10-08T12:32:17.815Z,1.37
2017-10-08T12:34:46.674Z,1.00
2017-10-08T12:37:15.158Z,1.40
2017-10-08T12:39:44.403Z,1.00
2017-10-08T12:42:15.711Z,1.02
2017-10-08T12:44:45.899Z,1.10
2017-10-08T12:47:13.978Z,1.23
2017-10-08T12:49:42.053Z,1.15
2017-10-08T12:52:10.161Z,1.40
2017-10-08T12:54:38.280Z,1.17
2017-10-08T12:57:07.126Z,1.60
2017-10-08T12:59:36.582Z,1.35
2017-10-08T13:02:04.963Z,1.10
2017-10-08T13:04:33.042Z,0.90
2017-10-08T13:07:01.205Z,1.00
2017-10-08T13:09:29.288Z,1.42
2017-10-08T13:11:57.389Z,1.35
2017-10-08T13:14:26.982Z,1.20
2017-10-08T13:16:55.063Z,0.98
2017-10-08T13:19:23.172Z,3.00
2017-10-08T13:21:51.273Z,1.30
2017-10-08T13:24:19.388Z,1.10
2017-10-08T13:26:47.478Z,1.20
2017-10-08T13:29:16.547Z,1.50
2017-10-08T13:31:45.436Z,2.08
2017-10-08T13:34:14.279Z,1.80
2017-10-08T13:36:42.364Z,1.62
2017-10-08T13:39:10.457Z,1.83
2017-10-08T13:41:38.934Z,2.17
2017-10-08T13:44:07.428Z,1.70
2017-10-08T13:46:37.935Z,1.65
2017-10-08T13:49:06.033Z,1.55
2017-10-08T13:51:34.102Z,2.28
2017-10-08T13:54:02.987Z,1.80
2017-10-08T13:56:31.061Z,2.17
2017-10-08T13:58:59.154Z,2.37
2017-10-08T14:01:28.010Z,2.03
2017-10-08T14:03:56.111Z,1.50
2017-10-08T14:06:24.195Z,1.60
2017-10-08T14:08:52.698Z,1.95
2017-10-08T14:11:20.782Z,1.58
2017-10-08T14:13:49.638Z,1.40
2017-10-08T14:16:17.724Z,1.33
2017-10-08T14:18:45.815Z,1.35
2017-10-08T14:21:13.949Z,1.60
2017-10-08T14:26:18.069Z,1.20
2017-10-08T14:28:46.152Z,1.30
2017-10-08T14:31:15.000Z,1.55
2017-10-08T14:33:43.104Z,1.20
2017-10-08T14:36:12.942Z,1.25
2017-10-08T14:38:42.159Z,1.45
2017-10-08T14:41:10.288Z,1.33
2017-10-08T14:43:38.371Z,2.58
2017-10-08T14:46:07.218Z,4.22
2017-10-08T14:48:36.093Z,1.90
2017-10-08T14:51:04.175Z,1.50
2017-10-08T14:53:32.287Z,1.52
2017-10-08T14:56:01.140Z,2.30
2017-10-08T14:58:29.239Z,2.20
2017-10-08T15:00:57.342Z,2.17
2017-10-08T15:03:25.438Z,2.22
2017-10-08T15:05:54.677Z,2.97
2017-10-08T15:08:22.786Z,2.30
2017-10-08T15:10:52.019Z,2.40
2017-10-08T15:13:21.462Z,1.67
2017-10-08T15:15:49.459Z,2.20
2017-10-08T15:18:17.561Z,1.85
2017-10-08T15:20:45.653Z,2.25
2017-10-08T15:23:14.914Z,2.42
2017-10-08T15:25:43.014Z,2.70
2017-10-08T15:28:11.106Z,3.00
2017-10-08T15:30:39.211Z,2.42
2017-10-08T15:33:07.298Z,2.90
2017-10-08T15:35:35.393Z,2.40
2017-10-08T15:38:03.483Z,2.90
2017-10-08T15:40:32.347Z,2.10
2017-10-08T15:43:00.450Z,2.00
2017-10-08T15:45:28.529Z,2.15
2017-10-08T15:47:56.607Z,2.50
2017-10-08T15:50:24.702Z,2.90
2017-10-08T15:52:54.293Z,2.30
2017-10-08T15:55:22.414Z,2.30
2017-10-08T15:57:50.491Z,6.87
2017-10-08T16:00:18.577Z,3.05
2017-10-08T16:02:46.698Z,2.03
2017-10-08T16:05:16.148Z,4.72
2017-10-08T16:07:44.142Z,4.80
2017-10-08T16:10:12.324Z,2.55
2017-10-08T16:12:40.441Z,2.67
2017-10-08T16:15:08.526Z,1.90
2017-10-08T16:17:37.020Z,2.50
2017-10-08T16:20:05.119Z,2.60
2017-10-08T16:22:33.958Z,2.25
2017-10-08T16:25:02.060Z,2.70
2017-10-08T16:27:30.244Z,3.05
2017-10-08T16:29:58.726Z,6.10
2017-10-08T16:32:27.226Z,8.68
2017-10-08T16:34:57.246Z,5.85
2017-10-08T16:37:25.330Z,3.40
2017-10-08T16:39:54.538Z,2.95
2017-10-08T16:42:23.410Z,2.70
2017-10-08T16:44:51.489Z,2.22
2017-10-08T16:47:20.340Z,1.92
2017-10-08T16:49:48.445Z,2.65
2017-10-08T16:52:16.528Z,2.35
2017-10-08T16:54:45.032Z,1.95
2017-10-08T16:57:13.118Z,3.83
2017-10-08T16:59:41.223Z,2.20
2017-10-08T17:02:09.299Z,2.20
2017-10-08T17:04:38.533Z,2.28
2017-10-08T17:07:06.611Z,2.90
2017-10-08T17:09:35.492Z,2.15
2017-10-08T17:12:03.603Z,3.08
2017-10-08T17:14:32.831Z,2.75
2017-10-08T17:17:00.911Z,2.00
2017-10-08T17:19:29.042Z,2.30
2017-10-08T17:21:57.138Z,2.17
2017-10-08T17:24:25.282Z,2.15
2017-10-08T17:26:53.394Z,1.95
2017-10-08T17:29:21.509Z,2.42
2017-10-08T17:31:52.044Z,2.35
2017-10-08T17:34:20.998Z,2.60
2017-10-08T17:36:49.904Z,3.37
2017-10-08T17:39:18.028Z,5.15
2017-10-08T17:41:46.128Z,2.03
2017-10-08T17:44:14.218Z,1.85
2017-10-08T17:46:42.322Z,1.98
2017-10-08T17:49:10.416Z,2.00
2017-10-08T17:51:39.662Z,2.65
2017-10-08T17:54:07.762Z,2.12
2017-10-08T17:56:37.577Z,2.40
2017-10-08T17:59:05.683Z,2.28
2017-10-08T18:01:34.566Z,2.30
2017-10-08T18:04:02.648Z,3.00
2017-10-08T18:06:30.749Z,1.73
2017-10-08T18:08:59.600Z,5.75
2017-10-08T18:11:29.206Z,3.00
2017-10-08T18:13:57.288Z,3.25
2017-10-08T18:16:26.367Z,3.95
2017-10-08T18:18:55.228Z,3.03
2017-10-08T18:21:24.815Z,2.62
2017-10-08T18:23:53.164Z,3.20
2017-10-08T18:26:22.948Z,3.22
2017-10-08T18:28:51.429Z,3.20
2017-10-08T18:31:19.922Z,3.40
2017-10-08T18:33:49.512Z,2.92
2017-10-08T18:36:18.620Z,3.25
2017-10-08T18:38:46.721Z,3.05
2017-10-08T18:41:14.815Z,2.72
2017-10-08T18:43:44.456Z,3.00
2017-10-08T18:46:13.290Z,2.90
2017-10-08T18:48:41.379Z,4.43
2017-10-08T18:51:09.484Z,3.60
2017-10-08T18:53:39.061Z,4.07
2017-10-08T18:56:07.170Z,4.25
2017-10-08T18:58:35.254Z,3.72
2017-10-08T19:01:03.348Z,4.53
2017-10-08T19:03:33.184Z,4.20
2017-10-08T19:06:01.262Z,2.85
2017-10-08T19:08:30.181Z,2.83
2017-10-08T19:10:59.856Z,4.12
2017-10-08T19:13:27.917Z,2.30
2017-10-08T19:15:55.999Z,2.30
2017-10-08T19:18:24.105Z,2.35
2017-10-08T19:20:53.562Z,3.10
2017-10-08T19:23:21.565Z,3.00
2017-10-08T19:25:49.634Z,4.00
2017-10-08T19:28:17.734Z,5.12
2017-10-08T19:30:46.591Z,3.70
2017-10-08T19:33:14.711Z,3.22
2017-10-08T19:35:42.795Z,2.75
2017-10-08T19:38:10.880Z,2.60
2017-10-08T19:40:38.989Z,2.40
2017-10-08T19:43:07.095Z,2.05
2017-10-08T19:45:35.220Z,2.72
2017-10-08T19:48:03.332Z,2.00
2017-10-08T19:50:32.770Z,2.72
2017-10-08T19:53:00.783Z,2.20
2017-10-08T19:55:28.882Z,1.83
2017-10-08T19:57:57.738Z,2.70
2017-10-08T20:00:25.818Z,2.20
2017-10-08T20:02:53.926Z,2.28
2017-10-08T20:05:22.006Z,2.70
2017-10-08T20:07:50.092Z,2.87
2017-10-08T20:10:18.182Z,2.42
2017-10-08T20:12:46.275Z,2.62
2017-10-08T20:15:14.893Z,2.87
2017-10-08T20:17:42.968Z,4.55
2017-10-08T20:20:11.060Z,3.65
2017-10-08T20:22:39.156Z,2.67
2017-10-08T20:25:07.249Z,2.80
2017-10-08T20:27:35.346Z,2.62
2017-10-08T20:30:04.979Z,3.15
2017-10-08T20:32:34.421Z,2.28
2017-10-08T20:35:04.368Z,2.80
2017-10-08T20:37:33.239Z,3.12
2017-10-08T20:40:01.320Z,2.75
2017-10-08T20:42:29.422Z,3.53
2017-10-08T20:44:57.504Z,3.45
2017-10-08T20:47:25.602Z,3.35
2017-10-08T20:49:53.693Z,3.10
2017-10-08T20:52:21.790Z,3.42
2017-10-08T20:54:49.899Z,2.95
2017-10-08T20:57:17.973Z,3.70
2017-10-08T20:59:46.082Z,3.72
2017-10-08T21:02:15.511Z,3.70
2017-10-08T21:04:43.922Z,3.75
2017-10-08T21:07:12.022Z,3.33
2017-10-08T21:09:40.122Z,3.72
2017-10-08T21:12:08.227Z,3.85
2017-10-08T21:14:37.075Z,5.15
2017-10-08T21:17:05.157Z,4.35
2017-10-08T21:19:34.612Z,4.00
2017-10-08T21:22:04.193Z,4.32
2017-10-08T21:24:32.314Z,4.30
2017-10-08T21:27:00.798Z,3.03
2017-10-08T21:29:29.665Z,4.05
2017-10-08T21:31:58.178Z,3.80
2017-10-08T21:34:26.645Z,3.78
2017-10-08T21:36:54.734Z,4.90
2017-10-08T21:39:23.610Z,4.35
2017-10-08T21:41:51.699Z,5.53
2017-10-08T21:44:19.782Z,4.82
2017-10-08T21:46:48.646Z,5.15
2017-10-08T21:49:17.496Z,4.55
2017-10-08T21:51:45.613Z,4.80
2017-10-08T21:54:13.698Z,4.87
2017-10-08T21:56:41.789Z,4.95
2017-10-08T21:59:10.632Z,5.22
2017-10-08T22:01:38.731Z,4.53
2017-10-08T22:04:06.807Z,4.93
2017-10-08T22:06:34.885Z,4.62
2017-10-08T22:09:02.998Z,4.68
2017-10-08T22:11:31.097Z,4.28
2017-10-08T22:14:00.316Z,4.53
2017-10-08T22:16:28.437Z,5.68
2017-10-08T22:18:57.864Z,5.65
2017-10-08T22:21:25.856Z,5.65
2017-10-08T22:23:53.951Z,5.15
2017-10-08T22:26:25.416Z,5.68
2017-10-08T22:28:54.273Z,5.50
2017-10-08T22:31:22.402Z,6.55
2017-10-08T22:33:51.247Z,5.82
2017-10-08T22:36:19.335Z,5.35
2017-10-08T22:38:47.433Z,5.35
2017-10-08T22:41:15.518Z,6.28
2017-10-08T22:43:44.015Z,6.40
2017-10-08T22:46:12.086Z,6.18
2017-10-08T22:48:40.179Z,6.40
2017-10-08T22:51:08.693Z,6.35
2017-10-08T22:53:36.767Z,4.85
2017-10-08T22:56:05.606Z,6.15
2017-10-08T22:58:33.710Z,5.70
2017-10-08T23:01:01.797Z,5.95
2017-10-08T23:03:29.889Z,5.82
2017-10-08T23:05:58.736Z,6.30
2017-10-08T23:08:26.832Z,6.03
2017-10-08T23:10:54.926Z,9.38
2017-10-08T23:13:23.020Z,7.25
2017-10-08T23:15:51.120Z,5.90
2017-10-08T23:18:19.205Z,7.70
2017-10-08T23:20:47.678Z,7.07
2017-10-08T23:23:15.780Z,7.07
2017-10-08T23:25:45.216Z,7.72
2017-10-08T23:28:13.217Z,8.55
2017-10-08T23:30:41.315Z,8.60
2017-10-08T23:33:10.775Z,7.60
2017-10-08T23:35:39.560Z,6.90
2017-10-08T23:38:07.643Z,7.93
2017-10-08T23:40:35.751Z,7.47
2017-10-08T23:43:03.842Z,8.20
2017-10-08T23:45:32.687Z,9.60
2017-10-08T23:48:02.139Z,6.65
2017-10-08T23:50:30.131Z,8.43
2017-10-08T23:52:58.207Z,8.23
2017-10-08T23:55:26.309Z,8.00
2017-10-08T23:57:54.392Z,8.55
